sensor_id;sensor_type;location;lat;lon;timestamp;temperature;humidity
65536;DHT22;52145;49.342;9.116;2022-10-17T11:28:16;27.80;92.10
65536;DHT22;52145;49.342;9.116;2022-10-17T11:30:54;27.90;91.10
65536;DHT22;52145;49.342;9.116;2022-10-17T11:33:31;28.10;90.60
65536;DHT22;52145;49.342;9.116;2022-10-17T11:36:03;29.30;89.40
65536;DHT22;52145;49.342;9.116;2022-10-17T11:38:54;30.40;86.40
65536;DHT22;52145;49.342;9.116;2022-10-17T11:44:25;29.10;87.50
65536;DHT22;52145;49.342;9.116;2022-10-17T11:47:05;30.00;85.30
65536;DHT22;52145;49.342;9.116;2022-10-17T11:49:35;29.10;87.60
65536;DHT22;52145;49.342;9.116;2022-10-17T11:55:24;29.50;87.10
65536;DHT22;52145;49.342;9.116;2022-10-17T12:11:36;30.10;83.10
65536;DHT22;52145;49.342;9.116;2022-10-17T12:14:35;29.50;84.90
65536;DHT22;52145;49.342;9.116;2022-10-17T12:17:02;30.30;83.90
65536;DHT22;52145;49.342;9.116;2022-10-17T12:19:33;31.10;81.30
65536;DHT22;52145;49.342;9.116;2022-10-17T12:24:40;30.70;82.20
65536;DHT22;52145;49.342;9.116;2022-10-17T12:27:30;31.30;81.70
65536;DHT22;52145;49.342;9.116;2022-10-17T12:30:18;33.20;78.90
65536;DHT22;52145;49.342;9.116;2022-10-17T12:35:37;30.90;76.80
65536;DHT22;52145;49.342;9.116;2022-10-17T12:38:25;30.50;78.20
65536;DHT22;52145;49.342;9.116;2022-10-17T12:40:55;30.70;77.80
65536;DHT22;52145;49.342;9.116;2022-10-17T12:45:54;31.30;77.20
65536;DHT22;52145;49.342;9.116;2022-10-17T12:51:05;29.30;80.80
65536;DHT22;52145;49.342;9.116;2022-10-17T12:53:57;29.80;79.20
65536;DHT22;52145;49.342;9.116;2022-10-17T12:56:39;30.10;78.70
65536;DHT22;52145;49.342;9.116;2022-10-17T12:59:20;30.50;78.80
65536;DHT22;52145;49.342;9.116;2022-10-17T13:01:50;29.70;79.20
65536;DHT22;52145;49.342;9.116;2022-10-17T13:04:17;30.20;79.60
65536;DHT22;52145;49.342;9.116;2022-10-17T13:06:57;30.50;79.30
65536;DHT22;52145;49.342;9.116;2022-10-17T13:09:27;30.70;78.50
65536;DHT22;52145;49.342;9.116;2022-10-17T13:11:54;31.40;77.30
65536;DHT22;52145;49.342;9.116;2022-10-17T13:14:22;31.90;75.60
65536;DHT22;52145;49.342;9.116;2022-10-17T13:16:57;31.20;74.40
65536;DHT22;52145;49.342;9.116;2022-10-17T13:19:25;30.90;75.90
65536;DHT22;52145;49.342;9.116;2022-10-17T13:21:59;29.70;77.50
65536;DHT22;52145;49.342;9.116;2022-10-17T13:24:37;30.20;77.80
65536;DHT22;52145;49.342;9.116;2022-10-17T13:27:04;30.50;76.80
65536;DHT22;52145;49.342;9.116;2022-10-17T13:29:30;31.60;74.80
65536;DHT22;52145;49.342;9.116;2022-10-17T13:32:04;31.80;73.80
65536;DHT22;52145;49.342;9.116;2022-10-17T13:34:31;31.30;74.50
65536;DHT22;52145;49.342;9.116;2022-10-17T13:37:03;30.30;74.00
65536;DHT22;52145;49.342;9.116;2022-10-17T13:39:35;30.40;76.60
65536;DHT22;52145;49.342;9.116;2022-10-17T13:42:02;30.70;75.80
65536;DHT22;52145;49.342;9.116;2022-10-17T13:44:33;30.20;75.20
65536;DHT22;52145;49.342;9.116;2022-10-17T13:46:59;29.20;75.70
65536;DHT22;52145;49.342;9.116;2022-10-17T13:49:41;29.50;75.30
65536;DHT22;52145;49.342;9.116;2022-10-17T13:52:16;29.20;76.50
65536;DHT22;52145;49.342;9.116;2022-10-17T13:54:45;29.00;76.30
65536;DHT22;52145;49.342;9.116;2022-10-17T13:59:48;29.40;76.60
65536;DHT22;52145;49.342;9.116;2022-10-17T14:02:17;28.80;77.10
65536;DHT22;52145;49.342;9.116;2022-10-17T14:04:43;29.90;75.70
65536;DHT22;52145;49.342;9.116;2022-10-17T14:07:26;31.00;73.10
65536;DHT22;52145;49.342;9.116;2022-10-17T14:09:53;30.00;74.20
65536;DHT22;52145;49.342;9.116;2022-10-17T14:12:20;30.00;75.70
65536;DHT22;52145;49.342;9.116;2022-10-17T14:14:48;30.40;75.00
65536;DHT22;52145;49.342;9.116;2022-10-17T14:19:53;30.50;73.90
65536;DHT22;52145;49.342;9.116;2022-10-17T14:24:45;31.30;75.10
65536;DHT22;52145;49.342;9.116;2022-10-17T14:27:32;31.30;73.50
65536;DHT22;52145;49.342;9.116;2022-10-17T14:30:05;31.30;73.40
65536;DHT22;52145;49.342;9.116;2022-10-17T14:32:35;31.30;74.10
65536;DHT22;52145;49.342;9.116;2022-10-17T14:35:04;31.50;74.20
65536;DHT22;52145;49.342;9.116;2022-10-17T14:37:41;31.70;72.70
65536;DHT22;52145;49.342;9.116;2022-10-17T14:40:29;31.60;73.30
65536;DHT22;52145;49.342;9.116;2022-10-17T14:42:57;30.50;74.70
65536;DHT22;52145;49.342;9.116;2022-10-17T14:45:27;29.20;77.30
65536;DHT22;52145;49.342;9.116;2022-10-17T14:47:55;28.80;78.00
65536;DHT22;52145;49.342;9.116;2022-10-17T14:50:27;28.30;79.70
65536;DHT22;52145;49.342;9.116;2022-10-17T14:53:28;28.40;80.70
65536;DHT22;52145;49.342;9.116;2022-10-17T14:55:57;28.00;81.80
65536;DHT22;52145;49.342;9.116;2022-10-17T14:58:32;27.30;85.00
65536;DHT22;52145;49.342;9.116;2022-10-17T15:00:59;26.90;84.90
65536;DHT22;52145;49.342;9.116;2022-10-17T15:03:25;26.20;86.30
65536;DHT22;52145;49.342;9.116;2022-10-17T15:05:52;25.80;89.70
65536;DHT22;52145;49.342;9.116;2022-10-17T15:08:20;25.50;89.80
65536;DHT22;52145;49.342;9.116;2022-10-17T15:10:46;24.90;91.10
65536;DHT22;52145;49.342;9.116;2022-10-17T15:13:13;24.80;91.90
65536;DHT22;52145;49.342;9.116;2022-10-17T15:15:39;24.70;91.10
65536;DHT22;52145;49.342;9.116;2022-10-17T15:18:06;24.60;91.30
65536;DHT22;52145;49.342;9.116;2022-10-17T15:20:32;24.40;91.90
65536;DHT22;52145;49.342;9.116;2022-10-17T15:23:00;24.00;92.20
65536;DHT22;52145;49.342;9.116;2022-10-17T15:25:27;24.10;92.30
65536;DHT22;52145;49.342;9.116;2022-10-17T15:27:53;24.10;92.80
65536;DHT22;52145;49.342;9.116;2022-10-17T15:32:47;23.90;93.80
65536;DHT22;52145;49.342;9.116;2022-10-17T15:35:13;23.60;95.00
65536;DHT22;52145;49.342;9.116;2022-10-17T15:37:39;23.40;94.80
65536;DHT22;52145;49.342;9.116;2022-10-17T15:40:05;23.40;95.20
65536;DHT22;52145;49.342;9.116;2022-10-17T15:42:31;23.20;95.70
65536;DHT22;52145;49.342;9.116;2022-10-17T15:44:57;23.30;95.90
65536;DHT22;52145;49.342;9.116;2022-10-17T15:47:26;23.20;96.00
65536;DHT22;52145;49.342;9.116;2022-10-17T15:49:54;23.10;95.40
65536;DHT22;52145;49.342;9.116;2022-10-17T15:52:20;23.10;95.50
65536;DHT22;52145;49.342;9.116;2022-10-17T15:54:45;23.00;95.70
65536;DHT22;52145;49.342;9.116;2022-10-17T15:57:26;22.80;96.80
65536;DHT22;52145;49.342;9.116;2022-10-17T15:59:54;22.80;96.60
65536;DHT22;52145;49.342;9.116;2022-10-17T16:02:21;22.60;97.20
65536;DHT22;52145;49.342;9.116;2022-10-17T16:04:48;22.40;98.10
65536;DHT22;52145;49.342;9.116;2022-10-17T16:07:14;22.20;98.80
65536;DHT22;52145;49.342;9.116;2022-10-17T16:09:40;22.00;99.50
65536;DHT22;52145;49.342;9.116;2022-10-17T16:12:10;21.70;99.90
65536;DHT22;52145;49.342;9.116;2022-10-17T16:14:38;21.30;99.90
65536;DHT22;52145;49.342;9.116;2022-10-17T16:17:03;21.20;99.90
65536;DHT22;52145;49.342;9.116;2022-10-17T16:19:29;21.10;99.90
65536;DHT22;52145;49.342;9.116;2022-10-17T16:21:56;20.90;99.90
65536;DHT22;52145;49.342;9.116;2022-10-17T16:24:22;20.80;99.90
65536;DHT22;52145;49.342;9.116;2022-10-17T16:26:48;20.70;99.90
65536;DHT22;52145;49.342;9.116;2022-10-17T16:29:14;20.50;99.90
65536;DHT22;52145;49.342;9.116;2022-10-17T16:31:42;20.20;99.90
65536;DHT22;52145;49.342;9.116;2022-10-17T16:34:10;20.20;99.90
65536;DHT22;52145;49.342;9.116;2022-10-17T16:36:37;20.00;99.90
65536;DHT22;52145;49.342;9.116;2022-10-17T16:39:03;19.90;99.90
65536;DHT22;52145;49.342;9.116;2022-10-17T16:41:30;19.80;99.90
65536;DHT22;52145;49.342;9.116;2022-10-17T16:43:58;19.70;99.90
65536;DHT22;52145;49.342;9.116;2022-10-17T16:46:26;19.60;99.90
65536;DHT22;52145;49.342;9.116;2022-10-17T16:48:52;19.50;99.90
65536;DHT22;52145;49.342;9.116;2022-10-17T16:51:19;19.40;99.90
65536;DHT22;52145;49.342;9.116;2022-10-17T16:53:46;19.20;99.90
65536;DHT22;52145;49.342;9.116;2022-10-17T16:56:14;19.20;99.90
65536;DHT22;52145;49.342;9.116;2022-10-17T16:58:41;19.10;99.90
65536;DHT22;52145;49.342;9.116;2022-10-17T17:01:09;19.00;99.90
65536;DHT22;52145;49.342;9.116;2022-10-17T17:03:36;18.80;99.90
65536;DHT22;52145;49.342;9.116;2022-10-17T17:06:03;18.80;99.90
65536;DHT22;52145;49.342;9.116;2022-10-17T17:08:29;18.80;99.90
65536;DHT22;52145;49.342;9.116;2022-10-17T17:10:55;18.70;99.90
65536;DHT22;52145;49.342;9.116;2022-10-17T17:13:21;18.60;99.90
65536;DHT22;52145;49.342;9.116;2022-10-17T17:15:47;18.50;99.90
65536;DHT22;52145;49.342;9.116;2022-10-17T17:18:18;18.40;99.90
65536;DHT22;52145;49.342;9.116;2022-10-17T17:20:44;18.30;99.90
65536;DHT22;52145;49.342;9.116;2022-10-17T17:23:09;18.30;99.90
65536;DHT22;52145;49.342;9.116;2022-10-17T17:25:35;18.10;99.90
65536;DHT22;52145;49.342;9.116;2022-10-17T17:28:04;18.10;99.90
65536;DHT22;52145;49.342;9.116;2022-10-17T17:30:34;18.00;99.90
65536;DHT22;52145;49.342;9.116;2022-10-17T17:33:00;17.90;99.90
65536;DHT22;52145;49.342;9.116;2022-10-17T17:35:26;17.90;99.90
65536;DHT22;52145;49.342;9.116;2022-10-17T17:37:52;17.90;99.90
65536;DHT22;52145;49.342;9.116;2022-10-17T17:40:18;17.80;99.90
65536;DHT22;52145;49.342;9.116;2022-10-17T17:42:43;17.70;99.90
65536;DHT22;52145;49.342;9.116;2022-10-17T17:45:09;17.70;99.90
65536;DHT22;52145;49.342;9.116;2022-10-17T17:47:35;17.60;99.90
65536;DHT22;52145;49.342;9.116;2022-10-17T17:50:00;17.60;99.90
65536;DHT22;52145;49.342;9.116;2022-10-17T17:52:27;17.50;99.90
65536;DHT22;52145;49.342;9.116;2022-10-17T17:54:54;17.50;99.90
65536;DHT22;52145;49.342;9.116;2022-10-17T17:57:20;17.40;99.90
65536;DHT22;52145;49.342;9.116;2022-10-17T17:59:45;17.40;99.90
65536;DHT22;52145;49.342;9.116;2022-10-17T18:02:13;17.30;99.90
65536;DHT22;52145;49.342;9.116;2022-10-17T18:04:38;17.20;99.90
65536;DHT22;52145;49.342;9.116;2022-10-17T18:07:04;17.20;99.90
65536;DHT22;52145;49.342;9.116;2022-10-17T18:09:29;17.10;99.90
65536;DHT22;52145;49.342;9.116;2022-10-17T18:11:55;17.10;99.90
65536;DHT22;52145;49.342;9.116;2022-10-17T18:14:20;17.00;99.90
65536;DHT22;52145;49.342;9.116;2022-10-17T18:16:49;17.10;99.90
65536;DHT22;52145;49.342;9.116;2022-10-17T18:19:14;17.00;99.90
65536;DHT22;52145;49.342;9.116;2022-10-17T18:21:40;16.90;99.90
65536;DHT22;52145;49.342;9.116;2022-10-17T18:24:07;16.90;99.90
65536;DHT22;52145;49.342;9.116;2022-10-17T18:26:32;16.80;99.90
65536;DHT22;52145;49.342;9.116;2022-10-17T18:28:58;16.80;99.90
65536;DHT22;52145;49.342;9.116;2022-10-17T18:31:24;16.80;99.90
65536;DHT22;52145;49.342;9.116;2022-10-17T18:33:54;16.70;99.90
65536;DHT22;52145;49.342;9.116;2022-10-17T18:36:20;16.60;99.90
65536;DHT22;52145;49.342;9.116;2022-10-17T18:38:47;16.60;99.90
65536;DHT22;52145;49.342;9.116;2022-10-17T18:41:15;16.60;99.90
65536;DHT22;52145;49.342;9.116;2022-10-17T18:43:42;16.50;99.90
65536;DHT22;52145;49.342;9.116;2022-10-17T18:46:20;16.50;99.90
65536;DHT22;52145;49.342;9.116;2022-10-17T18:48:46;16.50;99.90
65536;DHT22;52145;49.342;9.116;2022-10-17T18:51:14;16.50;99.90
65536;DHT22;52145;49.342;9.116;2022-10-17T18:53:45;16.50;99.90
65536;DHT22;52145;49.342;9.116;2022-10-17T18:56:11;16.50;99.90
65536;DHT22;52145;49.342;9.116;2022-10-17T18:58:38;16.50;99.90
65536;DHT22;52145;49.342;9.116;2022-10-17T19:01:10;16.40;99.90
65536;DHT22;52145;49.342;9.116;2022-10-17T19:03:40;16.40;99.90
65536;DHT22;52145;49.342;9.116;2022-10-17T19:06:07;16.30;99.90
65536;DHT22;52145;49.342;9.116;2022-10-17T19:08:36;16.30;99.90
65536;DHT22;52145;49.342;9.116;2022-10-17T19:11:12;16.20;99.90
65536;DHT22;52145;49.342;9.116;2022-10-17T19:13:39;16.20;99.90
65536;DHT22;52145;49.342;9.116;2022-10-17T19:16:06;16.20;99.90
65536;DHT22;52145;49.342;9.116;2022-10-17T19:18:33;16.20;99.90
65536;DHT22;52145;49.342;9.116;2022-10-17T19:21:04;16.10;99.90
65536;DHT22;52145;49.342;9.116;2022-10-17T19:23:29;16.00;99.90
65536;DHT22;52145;49.342;9.116;2022-10-17T19:26:01;16.00;99.90
65536;DHT22;52145;49.342;9.116;2022-10-17T19:28:27;15.90;99.90
65536;DHT22;52145;49.342;9.116;2022-10-17T19:30:52;15.90;99.90
65536;DHT22;52145;49.342;9.116;2022-10-17T19:33:18;15.90;99.90
65536;DHT22;52145;49.342;9.116;2022-10-17T19:35:43;15.90;99.90
65536;DHT22;52145;49.342;9.116;2022-10-17T19:38:09;15.80;99.90
65536;DHT22;52145;49.342;9.116;2022-10-17T19:40:39;15.90;99.90
65536;DHT22;52145;49.342;9.116;2022-10-17T19:43:05;15.90;99.90
65536;DHT22;52145;49.342;9.116;2022-10-17T19:45:30;15.90;99.90
65536;DHT22;52145;49.342;9.116;2022-10-17T19:47:55;15.80;99.90
65536;DHT22;52145;49.342;9.116;2022-10-17T19:50:21;15.80;99.90
65536;DHT22;52145;49.342;9.116;2022-10-17T19:52:47;15.70;99.90
65536;DHT22;52145;49.342;9.116;2022-10-17T19:55:13;15.70;99.90
65536;DHT22;52145;49.342;9.116;2022-10-17T19:57:39;15.60;99.90
65536;DHT22;52145;49.342;9.116;2022-10-17T20:00:05;15.60;99.90
65536;DHT22;52145;49.342;9.116;2022-10-17T20:02:30;15.60;99.90
65536;DHT22;52145;49.342;9.116;2022-10-17T20:04:56;15.60;99.90
65536;DHT22;52145;49.342;9.116;2022-10-17T20:07:21;15.60;99.90
65536;DHT22;52145;49.342;9.116;2022-10-17T20:09:47;15.60;99.90
65536;DHT22;52145;49.342;9.116;2022-10-17T20:12:12;15.60;99.90
65536;DHT22;52145;49.342;9.116;2022-10-17T20:14:38;15.50;99.90
65536;DHT22;52145;49.342;9.116;2022-10-17T20:17:03;15.50;99.90
65536;DHT22;52145;49.342;9.116;2022-10-17T20:19:29;15.50;99.90
65536;DHT22;52145;49.342;9.116;2022-10-17T20:21:54;15.40;99.90
65536;DHT22;52145;49.342;9.116;2022-10-17T20:24:20;15.50;99.90
65536;DHT22;52145;49.342;9.116;2022-10-17T20:26:45;15.50;99.90
65536;DHT22;52145;49.342;9.116;2022-10-17T20:29:17;15.40;99.90
65536;DHT22;52145;49.342;9.116;2022-10-17T20:31:44;15.40;99.90
65536;DHT22;52145;49.342;9.116;2022-10-17T20:34:15;15.40;99.90
65536;DHT22;52145;49.342;9.116;2022-10-17T20:36:41;15.40;99.90
65536;DHT22;52145;49.342;9.116;2022-10-17T20:39:07;15.40;99.90
65536;DHT22;52145;49.342;9.116;2022-10-17T20:41:33;15.40;99.90
65536;DHT22;52145;49.342;9.116;2022-10-17T20:43:59;15.40;99.90
65536;DHT22;52145;49.342;9.116;2022-10-17T20:46:24;15.30;99.90
65536;DHT22;52145;49.342;9.116;2022-10-17T20:48:53;15.40;99.90
65536;DHT22;52145;49.342;9.116;2022-10-17T20:51:20;15.40;99.90
65536;DHT22;52145;49.342;9.116;2022-10-17T20:53:46;15.30;99.90
65536;DHT22;52145;49.342;9.116;2022-10-17T20:56:19;15.30;99.90
65536;DHT22;52145;49.342;9.116;2022-10-17T20:58:56;15.30;99.90
65536;DHT22;52145;49.342;9.116;2022-10-17T21:01:22;15.30;99.90
65536;DHT22;52145;49.342;9.116;2022-10-17T21:03:48;15.30;99.90
65536;DHT22;52145;49.342;9.116;2022-10-17T21:06:15;15.20;99.90
65536;DHT22;52145;49.342;9.116;2022-10-17T21:08:41;15.20;99.90
65536;DHT22;52145;49.342;9.116;2022-10-17T21:13:33;15.30;99.90
65536;DHT22;52145;49.342;9.116;2022-10-17T21:16:15;15.20;99.90
65536;DHT22;52145;49.342;9.116;2022-10-17T21:18:41;15.20;99.90
65536;DHT22;52145;49.342;9.116;2022-10-17T21:21:08;15.30;99.90
65536;DHT22;52145;49.342;9.116;2022-10-17T21:23:34;15.20;99.90
65536;DHT22;52145;49.342;9.116;2022-10-17T21:26:00;15.20;99.90
65536;DHT22;52145;49.342;9.116;2022-10-17T21:28:25;15.20;99.90
65536;DHT22;52145;49.342;9.116;2022-10-17T21:30:51;15.10;99.90
65536;DHT22;52145;49.342;9.116;2022-10-17T21:33:16;15.00;99.90
65536;DHT22;52145;49.342;9.116;2022-10-17T21:35:42;15.00;99.90
65536;DHT22;52145;49.342;9.116;2022-10-17T21:38:07;15.00;99.90
65536;DHT22;52145;49.342;9.116;2022-10-17T21:40:33;15.00;99.90
65536;DHT22;52145;49.342;9.116;2022-10-17T21:42:58;14.90;99.90
65536;DHT22;52145;49.342;9.116;2022-10-17T21:45:24;14.90;99.90
65536;DHT22;52145;49.342;9.116;2022-10-17T21:47:49;14.90;99.90
65536;DHT22;52145;49.342;9.116;2022-10-17T21:50:15;14.90;99.90
65536;DHT22;52145;49.342;9.116;2022-10-17T21:52:40;14.80;99.90
65536;DHT22;52145;49.342;9.116;2022-10-17T21:55:06;14.80;99.90
65536;DHT22;52145;49.342;9.116;2022-10-17T21:57:31;14.80;99.90
65536;DHT22;52145;49.342;9.116;2022-10-17T21:59:57;14.80;99.90
65536;DHT22;52145;49.342;9.116;2022-10-17T22:02:22;14.70;99.90
65536;DHT22;52145;49.342;9.116;2022-10-17T22:04:48;14.70;99.90
65536;DHT22;52145;49.342;9.116;2022-10-17T22:07:13;14.60;99.90
65536;DHT22;52145;49.342;9.116;2022-10-17T22:09:39;14.60;99.90
65536;DHT22;52145;49.342;9.116;2022-10-17T22:12:04;14.50;99.90
65536;DHT22;52145;49.342;9.116;2022-10-17T22:14:30;14.50;99.90
65536;DHT22;52145;49.342;9.116;2022-10-17T22:16:55;14.50;99.90
65536;DHT22;52145;49.342;9.116;2022-10-17T22:19:24;14.40;99.90
65536;DHT22;52145;49.342;9.116;2022-10-17T22:21:50;14.40;99.90
65536;DHT22;52145;49.342;9.116;2022-10-17T22:24:17;14.40;99.90
65536;DHT22;52145;49.342;9.116;2022-10-17T22:26:43;14.40;99.90
65536;DHT22;52145;49.342;9.116;2022-10-17T22:29:09;14.30;99.90
65536;DHT22;52145;49.342;9.116;2022-10-17T22:31:35;14.30;99.90
65536;DHT22;52145;49.342;9.116;2022-10-17T22:34:01;14.30;99.90
65536;DHT22;52145;49.342;9.116;2022-10-17T22:36:27;14.30;99.90
65536;DHT22;52145;49.342;9.116;2022-10-17T22:38:53;14.20;99.90
65536;DHT22;52145;49.342;9.116;2022-10-17T22:41:19;14.20;99.90
65536;DHT22;52145;49.342;9.116;2022-10-17T22:43:45;14.20;99.90
65536;DHT22;52145;49.342;9.116;2022-10-17T22:46:12;14.20;99.90
65536;DHT22;52145;49.342;9.116;2022-10-17T22:48:38;14.10;99.90
65536;DHT22;52145;49.342;9.116;2022-10-17T22:51:03;14.10;99.90
65536;DHT22;52145;49.342;9.116;2022-10-17T22:53:29;14.10;99.90
65536;DHT22;52145;49.342;9.116;2022-10-17T22:56:04;14.00;99.90
65536;DHT22;52145;49.342;9.116;2022-10-17T22:58:31;14.00;99.90
65536;DHT22;52145;49.342;9.116;2022-10-17T23:00:57;14.00;99.90
65536;DHT22;52145;49.342;9.116;2022-10-17T23:03:23;14.00;99.90
65536;DHT22;52145;49.342;9.116;2022-10-17T23:05:49;14.10;99.90
65536;DHT22;52145;49.342;9.116;2022-10-17T23:08:15;14.10;99.90
65536;DHT22;52145;49.342;9.116;2022-10-17T23:10:42;14.10;99.90
65536;DHT22;52145;49.342;9.116;2022-10-17T23:13:08;14.10;99.90
65536;DHT22;52145;49.342;9.116;2022-10-17T23:15:35;14.00;99.90
65536;DHT22;52145;49.342;9.116;2022-10-17T23:18:01;14.00;99.90
65536;DHT22;52145;49.342;9.116;2022-10-17T23:20:28;14.00;99.90
65536;DHT22;52145;49.342;9.116;2022-10-17T23:22:53;13.90;99.90
65536;DHT22;52145;49.342;9.116;2022-10-17T23:25:19;13.90;99.90
65536;DHT22;52145;49.342;9.116;2022-10-17T23:27:44;13.80;99.90
65536;DHT22;52145;49.342;9.116;2022-10-17T23:30:10;13.80;99.90
65536;DHT22;52145;49.342;9.116;2022-10-17T23:32:37;13.80;99.90
65536;DHT22;52145;49.342;9.116;2022-10-17T23:35:02;13.70;99.90
65536;DHT22;52145;49.342;9.116;2022-10-17T23:37:28;13.70;99.90
65536;DHT22;52145;49.342;9.116;2022-10-17T23:39:53;13.60;99.90
65536;DHT22;52145;49.342;9.116;2022-10-17T23:42:19;13.70;99.90
65536;DHT22;52145;49.342;9.116;2022-10-17T23:44:44;13.70;99.90
65536;DHT22;52145;49.342;9.116;2022-10-17T23:47:10;13.70;99.90
65536;DHT22;52145;49.342;9.116;2022-10-17T23:49:35;13.70;99.90
65536;DHT22;52145;49.342;9.116;2022-10-17T23:52:01;13.70;99.90
65536;DHT22;52145;49.342;9.116;2022-10-17T23:54:26;13.60;99.90
65536;DHT22;52145;49.342;9.116;2022-10-17T23:56:52;13.70;99.90
65536;DHT22;52145;49.342;9.116;2022-10-17T23:59:18;13.60;99.90
